Time;durP1;ratioP1;P1;durP2;ratioP2;P2;SDS_P1;SDS_P2;PMS_P1;PMS_P2;Temp;Humidity;BMP_temperature;BMP_pressure;BME280_temperature;BME280_humidity;BME280_pressure;Samples;Min_cycle;Max_cycle;Signal;HPM_P1;HPM_P2
2022/03/15 00:00:46;;;;;;;32.00;23.15;;;;;;;9.91;78.24;102711.03;5060725;28;20073;-48
2022/03/15 00:03:14;;;;;;;31.58;22.38;;;;;;;9.90;77.70;102709.38;5035756;28;20040;-45
2022/03/15 00:05:42;;;;;;;29.60;21.48;;;;;;;9.86;78.17;102703.53;5052822;28;20047;-46
2022/03/15 00:08:09;;;;;;;30.95;22.15;;;;;;;9.86;77.48;102713.56;5050721;28;20502;-45
2022/03/15 00:10:37;;;;;;;29.75;22.77;;;;;;;9.76;77.30;102712.13;5054277;28;20410;-47
2022/03/15 00:13:06;;;;;;;31.45;22.50;;;;;;;9.73;77.61;102706.31;5053247;28;20040;-44
2022/03/15 00:15:36;;;;;;;29.00;21.80;;;;;;;9.67;77.99;102702.56;5053370;28;20045;-47
2022/03/15 00:18:04;;;;;;;32.72;22.23;;;;;;;9.68;78.20;102695.22;5035621;28;20067;-44
2022/03/15 00:20:31;;;;;;;30.63;21.02;;;;;;;9.66;77.87;102692.72;5072246;28;20490;-46
2022/03/15 00:23:00;;;;;;;28.70;21.15;;;;;;;9.64;78.06;102689.38;5072961;28;20506;-45
2022/03/15 00:25:30;;;;;;;29.63;20.95;;;;;;;9.68;78.07;102690.63;5072017;28;20517;-47
2022/03/15 00:27:58;;;;;;;28.98;21.95;;;;;;;9.73;77.88;102693.53;5051677;28;20047;-43
2022/03/15 00:30:26;;;;;;;28.88;20.35;;;;;;;9.76;77.43;102687.63;5036262;28;20041;-43
2022/03/15 00:32:55;;;;;;;27.30;19.38;;;;;;;9.69;77.25;102692.31;5052766;28;20053;-42
2022/03/15 00:35:25;;;;;;;25.95;19.25;;;;;;;9.68;77.80;102690.63;5036112;28;20037;-42
2022/03/15 00:37:54;;;;;;;27.27;18.55;;;;;;;9.68;77.32;102690.63;5055124;28;20045;-42
2022/03/15 00:40:24;;;;;;;27.17;17.65;;;;;;;9.72;77.08;102691.88;5068068;28;20127;-42
2022/03/15 00:42:52;;;;;;;32.05;16.05;;;;;;;9.74;76.66;102695.22;5055156;28;20137;-43
2022/03/15 00:45:28;;;;;;;21.45;14.90;;;;;;;9.73;75.99;102693.53;5071215;28;22096;-41
2022/03/15 00:47:57;;;;;;;22.42;14.52;;;;;;;9.71;76.07;102695.63;5035388;28;20045;-42
2022/03/15 00:50:27;;;;;;;24.98;14.90;;;;;;;9.71;75.88;102692.06;5062224;28;20560;-42
2022/03/15 00:52:56;;;;;;;24.17;14.80;;;;;;;9.71;76.01;102695.63;5034350;28;20228;-49
2022/03/15 00:55:24;;;;;;;22.15;16.27;;;;;;;9.71;75.75;102692.91;5034983;28;20073;-48
2022/03/15 00:57:52;;;;;;;25.60;15.50;;;;;;;9.70;75.88;102691.25;5036325;28;20131;-49
2022/03/15 01:00:20;;;;;;;24.02;15.73;;;;;;;9.69;75.54;102692.31;5046544;28;20073;-45
2022/03/15 01:02:48;;;;;;;20.30;15.25;;;;;;;9.69;75.71;102684.16;5052943;28;20041;-45
2022/03/15 01:05:17;;;;;;;23.08;13.98;;;;;;;9.68;75.67;102687.06;5034551;28;20045;-45
2022/03/15 01:07:44;;;;;;;19.88;13.02;;;;;;;9.64;74.69;102692.09;5053707;28;20099;-46
2022/03/15 01:10:14;;;;;;;21.65;12.40;;;;;;;9.58;74.87;102691.09;5062071;28;20556;-45
2022/03/15 01:12:41;;;;;;;19.20;11.35;;;;;;;9.62;75.39;102680.63;5040448;28;20043;-45
2022/03/15 01:15:09;;;;;;;18.92;12.70;;;;;;;9.66;74.74;102684.56;5035550;28;20087;-43
2022/03/15 01:17:38;;;;;;;23.10;13.07;;;;;;;9.64;74.46;102683.94;5057187;28;20049;-42
2022/03/15 01:20:08;;;;;;;19.38;13.00;;;;;;;9.60;74.56;102685.44;5071227;28;20055;-45
2022/03/15 01:22:36;;;;;;;20.20;11.45;;;;;;;9.60;74.85;102682.72;5038442;28;20056;-47
2022/03/15 01:25:06;;;;;;;24.05;11.60;;;;;;;9.63;74.74;102674.09;5056477;28;20055;-43
2022/03/15 01:27:37;;;;;;;19.98;11.98;;;;;;;9.66;74.87;102676.38;5039616;28;20044;-46
2022/03/15 01:30:06;;;;;;;21.63;12.23;;;;;;;9.68;74.46;102674.28;5071885;28;20041;-44
2022/03/15 01:32:34;;;;;;;20.67;12.05;;;;;;;9.70;74.28;102672.19;5058554;28;20079;-46
2022/03/15 01:35:04;;;;;;;19.60;12.05;;;;;;;9.70;74.04;102672.19;5058106;28;20041;-46
2022/03/15 01:37:33;;;;;;;20.73;12.60;;;;;;;9.68;74.24;102668.84;5049115;28;20037;-48
2022/03/15 01:40:09;;;;;;;25.20;12.63;;;;;;;9.65;74.56;102669.28;5038292;28;20117;-46
2022/03/15 01:42:39;;;;;;;25.45;12.13;;;;;;;9.67;74.35;102660.88;5055667;28;20053;-48
2022/03/15 01:45:07;;;;;;;19.48;10.93;;;;;;;9.67;74.02;102656.31;5038438;28;20091;-45
2022/03/15 01:47:37;;;;;;;19.15;11.25;;;;;;;9.70;73.62;102657.75;5038963;28;20065;-43
2022/03/15 01:50:06;;;;;;;20.77;11.18;;;;;;;9.69;73.73;102656.06;5038917;28;20133;-45
2022/03/15 01:52:33;;;;;;;20.25;11.07;;;;;;;9.69;73.81;102653.34;5037634;28;20115;-46
2022/03/15 01:55:01;;;;;;;17.65;11.40;;;;;;;9.69;73.56;102648.75;5037967;28;20041;-47
2022/03/15 01:57:29;;;;;;;18.70;10.93;;;;;;;9.68;73.68;102647.06;5035743;28;20090;-48
2022/03/15 01:59:57;;;;;;;21.42;11.60;;;;;;;9.68;73.66;102640.81;5053145;28;20132;-45
2022/03/15 02:02:25;;;;;;;25.00;11.20;;;;;;;9.66;73.50;102635.56;5037637;28;20120;-43
2022/03/15 02:04:53;;;;;;;21.42;10.88;;;;;;;9.64;73.36;102640.38;5055134;28;20480;-45
2022/03/15 02:07:21;;;;;;;18.67;10.68;;;;;;;9.63;73.19;102638.72;5037847;28;20123;-46
2022/03/15 02:09:50;;;;;;;16.45;10.23;;;;;;;9.62;73.60;102634.34;5031501;28;20041;-42
2022/03/15 02:12:17;;;;;;;18.52;10.00;;;;;;;9.62;73.26;102634.34;5055260;28;20043;-46
2022/03/15 02:14:45;;;;;;;16.83;9.70;;;;;;;9.64;73.37;102640.38;5055343;28;20407;-47
2022/03/15 02:17:13;;;;;;;17.40;9.45;;;;;;;9.64;73.05;102639.56;5069256;28;20077;-48
2022/03/15 02:19:41;;;;;;;18.08;9.98;;;;;;;9.64;72.98;102639.56;5057136;28;20045;-45
2022/03/15 02:22:09;;;;;;;15.18;9.90;;;;;;;9.64;72.97;102640.38;5036784;28;20033;-47
2022/03/15 02:24:39;;;;;;;18.35;9.63;;;;;;;9.64;73.06;102634.94;5055154;28;20053;-48
2022/03/15 02:27:07;;;;;;;18.00;9.80;;;;;;;9.64;72.86;102634.94;5066834;28;20053;-45
2022/03/15 02:29:35;;;;;;;18.58;9.95;;;;;;;9.63;72.76;102633.28;5056343;28;20048;-47
2022/03/15 02:32:03;;;;;;;16.50;9.73;;;;;;;9.62;73.11;102622.59;5037050;28;20419;-46
2022/03/15 02:34:31;;;;;;;16.58;9.45;;;;;;;9.61;72.76;102627.22;5036932;28;20033;-45
2022/03/15 02:36:58;;;;;;;18.52;9.90;;;;;;;9.60;72.81;102618.22;5068883;28;20075;-42
2022/03/15 02:39:26;;;;;;;18.65;9.90;;;;;;;9.59;72.87;102611.09;5069138;28;20040;-45
2022/03/15 02:41:55;;;;;;;16.42;9.15;;;;;;;9.56;72.75;102608.00;5075458;28;20044;-46
2022/03/15 02:44:23;;;;;;;18.50;9.73;;;;;;;9.57;72.94;102604.19;5074575;28;20082;-46
2022/03/15 02:46:51;;;;;;;16.83;10.30;;;;;;;9.57;72.68;102590.59;5052663;28;20064;-47
2022/03/15 02:49:19;;;;;;;14.85;9.18;;;;;;;9.56;72.62;102602.53;5065952;28;20047;-48
2022/03/15 02:51:46;;;;;;;16.60;9.52;;;;;;;9.52;72.74;102598.56;5054317;28;20048;-47
2022/03/15 02:54:16;;;;;;;17.55;8.57;;;;;;;9.51;72.89;102592.31;5053548;28;20051;-46
2022/03/15 02:56:46;;;;;;;22.73;9.85;;;;;;;9.53;72.96;102584.75;5055527;28;20051;-47
2022/03/15 02:59:14;;;;;;;14.93;8.85;;;;;;;9.53;72.56;102581.22;5072298;28;20044;-46
2022/03/15 03:01:48;;;;;;;17.92;9.25;;;;;;;9.54;72.20;102585.59;5074297;28;20056;-47
2022/03/15 03:04:21;;;;;;;17.00;9.30;;;;;;;9.51;72.49;102578.69;5057186;28;20487;-47
2022/03/15 03:06:49;;;;;;;14.77;9.13;;;;;;;9.51;72.43;102580.59;5063158;28;20037;-46
2022/03/15 03:09:17;;;;;;;17.80;9.18;;;;;;;9.50;72.57;102579.78;5054961;28;20060;-46
2022/03/15 03:11:44;;;;;;;17.15;9.50;;;;;;;9.48;72.18;102575.59;5054221;28;20056;-46
2022/03/15 03:14:16;;;;;;;19.45;9.02;;;;;;;9.48;72.18;102583.75;5053944;28;20037;-47
2022/03/15 03:16:44;;;;;;;19.35;9.45;;;;;;;9.45;72.50;102576.00;5059173;28;20036;-45
2022/03/15 03:19:12;;;;;;;19.30;9.30;;;;;;;9.42;72.24;102563.69;5074030;28;20555;-45
2022/03/15 03:21:40;;;;;;;22.23;10.07;;;;;;;9.41;72.55;102566.63;5073686;28;20043;-47
2022/03/15 03:24:08;;;;;;;17.60;8.65;;;;;;;9.42;72.44;102554.69;5073710;28;20053;-45
2022/03/15 03:26:39;;;;;;;18.25;9.63;;;;;;;9.42;72.24;102558.22;5055241;28;20101;-44
2022/03/15 03:29:11;;;;;;;18.25;8.93;;;;;;;9.43;72.44;102561.78;5058023;28;20072;-47
2022/03/15 03:31:41;;;;;;;18.33;9.13;;;;;;;9.42;72.28;102554.69;5045803;28;20052;-45
2022/03/15 03:34:09;;;;;;;17.77;9.05;;;;;;;9.38;72.59;102559.75;5037502;28;20048;-44
2022/03/15 03:36:37;;;;;;;17.90;9.85;;;;;;;9.35;72.57;102563.72;5053819;28;20036;-45
2022/03/15 03:39:23;;;;;;;18.65;9.27;;;;;;;9.30;72.22;102552.66;5051305;28;20048;-46
2022/03/15 03:41:52;;;;;;;15.50;9.32;;;;;;;9.28;72.79;102560.19;5053586;28;20143;-47
2022/03/15 03:44:20;;;;;;;19.98;9.85;;;;;;;9.28;72.53;102560.19;5053400;28;20041;-45
2022/03/15 03:46:47;;;;;;;22.67;9.60;;;;;;;9.28;72.62;102557.47;5056855;28;20043;-47
2022/03/15 03:49:15;;;;;;;18.05;9.07;;;;;;;9.28;72.64;102559.34;5072494;28;20127;-45
2022/03/15 03:51:43;;;;;;;14.13;8.77;;;;;;;9.29;72.65;102547.44;5073375;28;20071;-47
2022/03/15 03:54:11;;;;;;;15.98;9.18;;;;;;;9.30;72.33;102555.38;5073562;28;20048;-46
2022/03/15 03:56:38;;;;;;;21.58;9.43;;;;;;;9.30;72.28;102560.81;5069479;28;20115;-44
2022/03/15 03:59:08;;;;;;;19.45;8.90;;;;;;;9.27;72.19;102553.09;5068316;28;20037;-45
2022/03/15 04:01:35;;;;;;;16.20;8.93;;;;;;;9.19;72.61;102556.06;5053342;28;20045;-46
2022/03/15 04:04:05;;;;;;;17.13;9.00;;;;;;;9.09;72.38;102555.66;5053173;28;20084;-46
2022/03/15 04:06:34;;;;;;;17.85;9.25;;;;;;;8.98;73.00;102554.47;5054270;28;20059;-47
2022/03/15 04:09:02;;;;;;;17.55;9.10;;;;;;;8.95;73.10;102555.72;5053960;28;20507;-45
2022/03/15 04:11:31;;;;;;;15.07;8.55;;;;;;;8.91;74.31;102562.63;5053069;28;20136;-45
2022/03/15 04:14:00;;;;;;;17.38;8.73;;;;;;;8.90;73.61;102563.69;5036012;28;20052;-45
2022/03/15 04:16:29;;;;;;;17.38;8.93;;;;;;;8.89;74.11;102567.44;5053147;28;20403;-47
2022/03/15 04:18:57;;;;;;;15.30;8.02;;;;;;;8.86;73.92;102562.44;5035879;28;20047;-46
2022/03/15 04:21:25;;;;;;;16.15;8.23;;;;;;;8.82;74.30;102566.63;5052869;28;20033;-44
2022/03/15 04:23:54;;;;;;;15.95;8.30;;;;;;;8.87;73.88;102564.09;5035365;28;20041;-46
2022/03/15 04:26:24;;;;;;;17.73;8.75;;;;;;;8.87;74.32;102560.56;5071401;28;20509;-47
2022/03/15 04:28:55;;;;;;;15.93;9.00;;;;;;;8.86;73.82;102562.44;5035605;28;20491;-49
2022/03/15 04:31:23;;;;;;;15.13;8.00;;;;;;;8.86;74.41;102559.72;5053210;28;20033;-47
2022/03/15 04:33:51;;;;;;;18.25;8.73;;;;;;;8.84;74.14;102559.09;5052410;28;20047;-43
2022/03/15 04:36:19;;;;;;;20.95;8.60;;;;;;;8.79;74.56;102566.25;5052384;28;20124;-46
2022/03/15 04:38:47;;;;;;;15.55;8.70;;;;;;;8.76;74.11;102556.63;5052805;28;20045;-45
2022/03/15 04:41:15;;;;;;;17.77;8.95;;;;;;;8.76;74.84;102556.63;5052805;28;20041;-46
2022/03/15 04:43:42;;;;;;;16.27;8.68;;;;;;;8.78;74.60;102551.81;5052604;28;20065;-45
2022/03/15 04:46:11;;;;;;;16.48;8.15;;;;;;;8.79;74.10;102553.47;5062799;28;20052;-48
2022/03/15 04:48:39;;;;;;;15.20;8.40;;;;;;;8.77;74.11;102544.69;5072989;28;20514;-45
2022/03/15 04:51:08;;;;;;;17.88;8.18;;;;;;;8.78;74.42;102551.81;5056265;28;20123;-47
2022/03/15 04:53:36;;;;;;;14.80;7.88;;;;;;;8.79;74.04;102542.59;5058434;28;20052;-45
2022/03/15 04:56:04;;;;;;;15.82;8.73;;;;;;;8.83;74.52;102546.56;5071999;28;20051;-44
2022/03/15 04:58:32;;;;;;;15.70;8.68;;;;;;;8.83;73.96;102545.75;5056719;28;20041;-48
2022/03/15 05:00:59;;;;;;;15.90;8.45;;;;;;;8.81;74.22;102545.13;5039223;28;20048;-46
2022/03/15 05:03:27;;;;;;;16.67;8.32;;;;;;;8.76;74.05;102537.59;5056807;28;20048;-46
2022/03/15 05:05:55;;;;;;;15.40;8.60;;;;;;;8.73;74.02;102535.28;5057855;28;20043;-47
2022/03/15 05:08:22;;;;;;;13.23;8.60;;;;;;;8.67;74.56;102530.72;5071790;28;20397;-45
2022/03/15 05:11:08;;;;;;;16.45;8.70;;;;;;;8.63;74.75;102535.75;5056364;28;20093;-45
2022/03/15 05:13:37;;;;;;;17.63;8.40;;;;;;;8.61;75.28;102534.28;5057467;28;20066;-45
2022/03/15 05:16:09;;;;;;;16.48;8.60;;;;;;;8.62;74.74;102538.69;5039761;28;20423;-44
2022/03/15 05:18:40;;;;;;;17.30;8.50;;;;;;;8.62;75.52;102527.81;5039137;28;20087;-46
2022/03/15 05:21:09;;;;;;;15.68;8.35;;;;;;;8.64;75.05;102531.16;5040362;28;20053;-45
2022/03/15 05:23:37;;;;;;;18.35;8.25;;;;;;;8.63;74.64;102529.47;5038127;28;20549;-48
2022/03/15 05:26:04;;;;;;;17.10;8.35;;;;;;;8.59;74.99;102533.69;5073980;28;20051;-45
2022/03/15 05:28:32;;;;;;;18.98;8.52;;;;;;;8.54;74.84;102531.59;5076006;28;20041;-46
2022/03/15 05:31:00;;;;;;;17.55;8.77;;;;;;;8.50;74.98;102539.31;5075818;28;20410;-47
2022/03/15 05:33:28;;;;;;;19.00;8.35;;;;;;;8.50;75.62;102533.91;5057331;28;20036;-46
2022/03/15 05:35:56;;;;;;;16.88;8.02;;;;;;;8.49;75.13;102532.25;5049088;28;20545;-46
2022/03/15 05:38:24;;;;;;;18.05;8.65;;;;;;;8.48;75.70;102533.28;5052833;28;20443;-46
2022/03/15 05:40:52;;;;;;;15.70;8.60;;;;;;;8.42;75.20;102523.25;5058436;28;20043;-46
2022/03/15 05:43:22;;;;;;;15.32;8.27;;;;;;;8.42;75.61;102525.97;5075524;28;20037;-47
2022/03/15 05:45:50;;;;;;;14.98;8.07;;;;;;;8.40;75.88;102521.81;5053360;28;20049;-45
2022/03/15 05:48:19;;;;;;;17.83;9.23;;;;;;;8.36;75.45;102526.78;5037759;28;20048;-48
2022/03/15 05:50:48;;;;;;;19.25;8.32;;;;;;;8.30;75.52;102524.94;5055684;28;20047;-48
2022/03/15 05:53:15;;;;;;;19.27;8.70;;;;;;;8.24;76.58;102525.75;5055234;28;20044;-47
2022/03/15 05:55:43;;;;;;;19.17;9.25;;;;;;;8.20;76.46;102521.78;5047350;28;20407;-44
2022/03/15 05:58:14;;;;;;;19.50;8.23;;;;;;;8.15;76.94;102516.97;5075621;28;20487;-46
2022/03/15 06:00:42;;;;;;;16.77;8.30;;;;;;;8.15;76.52;102516.16;5057548;28;20451;-46
2022/03/15 06:03:11;;;;;;;19.95;8.85;;;;;;;8.16;76.72;102515.13;5074802;28;20094;-47
2022/03/15 06:05:39;;;;;;;14.88;7.63;;;;;;;8.14;76.45;102506.34;5066065;28;20059;-47
2022/03/15 06:08:10;;;;;;;18.92;8.27;;;;;;;8.08;76.78;102506.16;5055170;28;20479;-45
2022/03/15 06:10:38;;;;;;;16.15;8.07;;;;;;;8.05;76.91;102503.84;5054915;28;20056;-44
2022/03/15 06:13:05;;;;;;;15.60;8.80;;;;;;;8.05;77.29;102509.25;5037593;28;20056;-46
2022/03/15 06:15:33;;;;;;;18.25;8.73;;;;;;;8.05;76.86;102511.97;5065155;28;20051;-46
2022/03/15 06:18:01;;;;;;;18.63;7.97;;;;;;;8.08;77.27;102510.72;5075189;28;20040;-46
2022/03/15 06:20:29;;;;;;;17.30;8.07;;;;;;;8.10;76.96;102504.06;5075111;28;20044;-45
2022/03/15 06:22:58;;;;;;;14.82;7.28;;;;;;;8.14;76.51;102509.06;5056758;28;20062;-45
2022/03/15 06:25:30;;;;;;;15.88;8.00;;;;;;;8.21;76.44;102509.91;5055862;28;20049;-47
2022/03/15 06:27:58;;;;;;;16.05;7.30;;;;;;;8.29;76.30;102509.66;5054986;28;20056;-47
2022/03/15 06:30:27;;;;;;;17.55;7.78;;;;;;;8.31;75.58;102494.81;5020762;28;20071;-45
2022/03/15 06:32:55;;;;;;;14.30;7.75;;;;;;;8.26;76.09;102497.34;5037820;28;20557;-44
2022/03/15 06:35:24;;;;;;;16.85;8.27;;;;;;;8.21;76.08;102499.03;5045662;28;20066;-47
2022/03/15 06:37:52;;;;;;;16.23;7.32;;;;;;;8.17;76.59;102504.03;5037422;28;20045;-48
2022/03/15 06:40:23;;;;;;;16.08;7.55;;;;;;;8.13;76.47;102491.94;5054466;28;20518;-46
2022/03/15 06:42:56;;;;;;;18.15;7.80;;;;;;;8.12;76.36;102498.41;5055611;28;20052;-45
2022/03/15 06:45:23;;;;;;;14.98;7.95;;;;;;;8.13;76.55;102501.94;5055971;28;20045;-47
2022/03/15 06:47:51;;;;;;;16.35;8.60;;;;;;;8.08;76.04;102498.00;5054399;28;20049;-47
2022/03/15 06:50:21;;;;;;;17.15;8.10;;;;;;;8.05;76.45;102494.84;5060813;28;20044;-46
2022/03/15 06:52:49;;;;;;;14.25;7.38;;;;;;;7.97;76.34;102493.19;5067821;28;20047;-47
2022/03/15 06:55:17;;;;;;;17.40;7.60;;;;;;;7.90;77.40;102490.47;5055148;28;20045;-44
2022/03/15 06:57:45;;;;;;;17.80;8.07;;;;;;;7.91;77.14;102485.88;5050702;28;20040;-49
2022/03/15 07:00:15;;;;;;;18.77;7.47;;;;;;;7.92;77.39;102486.75;5054152;28;20053;-46
2022/03/15 07:02:43;;;;;;;15.48;7.32;;;;;;;7.92;77.03;102487.56;5055162;28;22033;-47
2022/03/15 07:05:11;;;;;;;14.65;6.82;;;;;;;7.97;76.96;102487.78;5057940;28;20479;-46
2022/03/15 07:07:39;;;;;;;20.48;6.78;;;;;;;7.97;77.02;102486.94;5074491;28;20138;-46
2022/03/15 07:10:09;;;;;;;17.00;7.57;;;;;;;8.02;76.86;102489.84;5055953;28;20052;-46
2022/03/15 07:12:37;;;;;;;13.55;7.10;;;;;;;8.08;76.95;102478.13;5052136;28;20037;-47
2022/03/15 07:15:06;;;;;;;15.07;7.22;;;;;;;8.07;76.84;102479.19;5035662;28;20056;-45
2022/03/15 07:17:34;;;;;;;20.65;7.53;;;;;;;8.09;76.84;102480.66;5072229;28;20045;-49
2022/03/15 07:20:02;;;;;;;12.55;6.53;;;;;;;8.06;76.46;102482.97;4370742;28;10000616;-46
2022/03/15 07:22:30;;;;;;;16.25;7.65;;;;;;;8.06;76.70;102481.09;5051213;28;20135;-45
2022/03/15 07:24:57;;;;;;;18.52;7.75;;;;;;;8.05;76.37;102473.97;5050351;28;20495;-47
2022/03/15 07:27:25;;;;;;;18.42;7.50;;;;;;;8.02;77.13;102470.84;5049151;28;20411;-46
2022/03/15 07:29:53;;;;;;;16.95;7.35;;;;;;;8.02;77.14;102470.84;5053925;28;20036;-43
2022/03/15 07:32:20;;;;;;;13.07;6.68;;;;;;;8.05;77.49;102468.53;5052660;28;20052;-49
2022/03/15 07:34:49;;;;;;;15.18;6.80;;;;;;;8.11;76.75;102466.88;5055467;28;20037;-46
2022/03/15 07:37:17;;;;;;;16.88;7.50;;;;;;;8.17;75.81;102463.31;5069920;28;20052;-46
2022/03/15 07:39:45;;;;;;;13.65;6.30;;;;;;;8.21;76.81;102455.59;5068784;28;20052;-50
2022/03/15 07:42:13;;;;;;;15.13;6.00;;;;;;;8.26;76.70;102456.59;5050283;28;20767;-45
2022/03/15 07:44:42;;;;;;;19.05;6.70;;;;;;;8.33;75.88;102462.03;5060301;28;20676;-48
2022/03/15 07:47:10;;;;;;;17.92;7.32;;;;;;;8.33;75.61;102459.31;5047440;28;20131;-48
2022/03/15 07:49:38;;;;;;;19.25;6.88;;;;;;;8.27;75.95;102457.44;5051886;28;20044;-47
2022/03/15 07:52:07;;;;;;;22.50;7.13;;;;;;;8.28;76.14;102451.81;5052028;28;20048;-48
2022/03/15 07:54:35;;;;;;;15.00;6.80;;;;;;;8.32;75.69;102446.78;5035576;28;20135;-46
2022/03/15 07:57:03;;;;;;;15.00;6.47;;;;;;;8.35;75.79;102457.22;5035723;28;20048;-48
2022/03/15 07:59:30;;;;;;;16.85;6.93;;;;;;;8.36;76.39;102447.19;5053067;28;20047;-47
2022/03/15 08:01:59;;;;;;;19.85;7.63;;;;;;;8.39;75.51;102442.16;5035846;28;20049;-48
2022/03/15 08:04:26;;;;;;;12.50;6.43;;;;;;;8.43;75.47;102448.03;5036701;28;20136;-46
2022/03/15 08:06:54;;;;;;;16.80;7.13;;;;;;;8.39;75.23;102442.16;5052815;28;20044;-49
2022/03/15 08:09:22;;;;;;;15.52;6.20;;;;;;;8.34;75.64;102439.25;5052885;28;20041;-44
2022/03/15 08:11:50;;;;;;;11.88;5.70;;;;;;;8.30;76.31;102438.03;5053257;28;20466;-47
2022/03/15 08:14:18;;;;;;;15.13;6.60;;;;;;;8.27;76.70;102449.28;5035301;28;20062;-47
2022/03/15 08:16:46;;;;;;;16.90;6.43;;;;;;;8.33;76.58;102453.88;5052769;28;20048;-50
2022/03/15 08:19:14;;;;;;;15.98;6.50;;;;;;;8.42;76.42;102452.66;5053141;28;20048;-45
2022/03/15 08:21:41;;;;;;;17.83;6.53;;;;;;;8.54;75.71;102447.38;5052521;28;20052;-46
2022/03/15 08:24:10;;;;;;;15.10;6.43;;;;;;;8.60;75.38;102449.22;5053703;28;20037;-46
2022/03/15 08:26:39;;;;;;;15.02;6.60;;;;;;;8.67;74.94;102441.88;5052750;28;20048;-45
2022/03/15 08:29:07;;;;;;;14.90;6.47;;;;;;;8.65;75.40;102437.72;5052672;28;20056;-46
2022/03/15 08:31:34;;;;;;;15.65;6.43;;;;;;;8.67;75.43;102433.72;5052623;28;20049;-47
2022/03/15 08:34:02;;;;;;;60.30;43.67;;;;;;;8.68;75.32;102440.00;5068965;28;20482;-48
2022/03/15 08:36:30;;;;;;;19.08;9.00;;;;;;;8.66;75.78;102431.22;5073142;28;20037;-47
2022/03/15 08:38:58;;;;;;;15.70;6.40;;;;;;;8.60;75.85;102432.94;5055174;28;20123;-48
2022/03/15 08:41:25;;;;;;;14.88;6.70;;;;;;;8.59;75.99;102433.16;5072961;28;20136;-46
2022/03/15 08:43:53;;;;;;;19.38;6.93;;;;;;;8.62;76.24;102430.00;5071572;28;20029;-46
2022/03/15 08:46:21;;;;;;;19.90;6.22;;;;;;;8.63;76.10;102426.22;5072765;28;20053;-47
2022/03/15 08:48:48;;;;;;;16.75;6.20;;;;;;;8.62;75.82;102427.28;5072439;28;20519;-46
2022/03/15 08:51:16;;;;;;;14.68;6.00;;;;;;;8.61;76.28;102426.47;5072378;28;20415;-45
2022/03/15 08:53:44;;;;;;;18.90;6.68;;;;;;;8.66;76.60;102431.22;5055373;28;20049;-44
2022/03/15 08:56:13;;;;;;;14.48;6.00;;;;;;;8.69;75.98;102423.50;5052182;28;20041;-47
2022/03/15 08:58:41;;;;;;;17.98;6.43;;;;;;;8.68;76.30;102421.84;5052477;28;20052;-49
2022/03/15 09:01:09;;;;;;;16.02;5.85;;;;;;;8.67;76.40;102416.59;5052393;28;20033;-45
2022/03/15 09:03:57;;;;;;;13.50;5.80;;;;;;;8.65;76.46;102416.81;5053565;28;20052;-45
2022/03/15 09:06:25;;;;;;;15.57;6.43;;;;;;;8.61;76.42;102412.03;5052235;28;20492;-44
2022/03/15 09:08:52;;;;;;;14.57;6.68;;;;;;;8.60;76.97;102415.78;5052296;28;20040;-47
2022/03/15 09:11:20;;;;;;;25.10;6.90;;;;;;;8.63;76.67;102407.22;5052054;28;20170;-44
2022/03/15 09:13:47;;;;;;;13.38;5.75;;;;;;;8.64;76.50;102408.91;5071184;28;20135;-45
2022/03/15 09:16:15;;;;;;;17.98;7.75;;;;;;;8.65;76.56;102402.41;5054061;28;20044;-48
2022/03/15 09:18:43;;;;;;;15.23;5.47;;;;;;;8.72;76.55;102403.19;5054612;28;20048;-49
2022/03/15 09:21:12;;;;;;;16.73;6.20;;;;;;;8.75;76.04;102394.59;5072446;28;20471;-48
2022/03/15 09:23:40;;;;;;;12.77;5.70;;;;;;;8.74;76.66;102392.94;5039368;28;20049;-43
2022/03/15 09:26:08;;;;;;;16.75;5.85;;;;;;;8.77;76.65;102394.41;5051915;28;20045;-46
2022/03/15 09:28:37;;;;;;;19.10;6.38;;;;;;;8.80;76.33;102393.94;5052377;28;20049;-47
2022/03/15 09:31:05;;;;;;;12.85;5.97;;;;;;;8.86;75.92;102403.97;5034384;28;20077;-48
2022/03/15 09:33:36;;;;;;;13.52;5.35;;;;;;;8.92;76.04;102398.50;5071148;28;20045;-45
2022/03/15 09:36:04;;;;;;;14.13;5.95;;;;;;;8.96;75.88;102394.28;5072323;28;20491;-46
2022/03/15 09:38:32;;;;;;;13.68;5.53;;;;;;;8.96;75.04;102388.00;5074964;28;20043;-48
2022/03/15 09:41:03;;;;;;;15.88;5.63;;;;;;;8.94;75.82;102384.66;5057842;28;20044;-48
2022/03/15 09:43:45;;;;;;;16.02;6.80;;;;;;;8.94;76.17;102390.94;5042158;28;20049;-47
2022/03/15 09:46:13;;;;;;;17.02;6.20;;;;;;;8.96;75.91;102391.56;5055829;28;20041;-48
2022/03/15 09:49:01;;;;;;;19.77;6.38;;;;;;;8.99;75.86;102392.19;5040917;28;20040;-47
2022/03/15 09:51:32;;;;;;;14.70;5.70;;;;;;;8.98;76.17;102398.69;5058546;28;20118;-47
2022/03/15 09:54:01;;;;;;;17.60;6.05;;;;;;;8.99;76.30;102392.19;5058120;28;20487;-47
2022/03/15 09:56:29;;;;;;;13.40;5.70;;;;;;;9.02;76.45;102391.72;5075443;28;20122;-45
2022/03/15 09:58:57;;;;;;;19.38;5.50;;;;;;;9.09;75.79;102393.38;5075315;28;20479;-47
2022/03/15 10:01:25;;;;;;;16.83;6.15;;;;;;;9.15;75.29;102391.66;5074729;28;20044;-46
2022/03/15 10:03:53;;;;;;;13.00;5.93;;;;;;;9.19;75.50;102390.16;5074253;28;20040;-46
2022/03/15 10:06:21;;;;;;;12.73;5.30;;;;;;;9.22;75.02;102389.72;5057971;28;20509;-46
2022/03/15 10:08:48;;;;;;;13.73;5.70;;;;;;;9.23;75.05;102393.28;5075499;28;20115;-46
2022/03/15 10:11:18;;;;;;;13.45;5.60;;;;;;;9.26;75.03;102387.38;5071071;28;20077;-46
2022/03/15 10:13:47;;;;;;;12.27;5.47;;;;;;;9.28;74.69;102380.66;5055178;28;20056;-48
2022/03/15 10:16:15;;;;;;;12.27;5.57;;;;;;;9.29;73.98;102384.25;5037582;28;20037;-47
2022/03/15 10:18:55;;;;;;;14.95;5.78;;;;;;;9.29;74.22;102382.34;5037628;28;20087;-48
2022/03/15 10:21:25;;;;;;;15.13;5.90;;;;;;;9.30;73.60;102386.72;5055756;28;20463;-46
2022/03/15 10:23:57;;;;;;;13.07;5.50;;;;;;;9.28;73.83;102383.38;5051871;28;20045;-47
2022/03/15 10:26:25;;;;;;;13.32;5.90;;;;;;;9.32;73.50;102381.91;5054732;28;20045;-47
2022/03/15 10:28:56;;;;;;;14.10;5.60;;;;;;;9.33;73.28;102369.97;5037185;28;20056;-46
2022/03/15 10:31:24;;;;;;;13.90;5.10;;;;;;;9.35;73.33;102370.56;5054641;28;20075;-45
2022/03/15 10:34:00;;;;;;;13.55;5.53;;;;;;;9.37;73.21;102362.19;5054061;28;20049;-46
2022/03/15 10:36:36;;;;;;;;;;;;;;;9.41;73.07;102365.31;5055051;28;20454;-45
2022/03/15 10:39:05;;;;;;;13.48;5.85;;;;;;;9.44;73.36;102364.88;5054821;28;20401;-47
2022/03/15 10:41:52;;;;;;;17.63;5.38;;;;;;;9.46;73.32;102354.59;5036938;28;20037;-50
2022/03/15 10:44:25;;;;;;;17.90;6.15;;;;;;;9.49;73.30;102356.88;5037461;28;20467;-48
2022/03/15 10:47:05;;;;;;;13.82;5.20;;;;;;;9.51;73.45;102341.97;5036978;28;20053;-48
2022/03/15 10:49:51;;;;;;;15.48;5.55;;;;;;;9.51;73.15;102343.88;5053117;28;20474;-48
2022/03/15 10:52:40;;;;;;;13.07;5.63;;;;;;;9.50;73.68;102339.47;5036545;28;20040;-45
2022/03/15 10:55:24;;;;;;;12.23;5.20;;;;;;;9.49;73.56;102333.19;5055595;28;20140;-47
2022/03/15 10:57:54;;;;;;;12.32;5.32;;;;;;;9.52;73.53;102331.91;5054161;28;20495;-47
2022/03/15 11:00:28;;;;;;;12.57;5.57;;;;;;;9.52;73.59;102327.31;5054220;28;20100;-48
2022/03/15 11:02:57;;;;;;;17.45;5.80;;;;;;;9.55;73.31;102326.06;5054406;28;20098;-46
2022/03/15 11:05:29;;;;;;;15.45;5.57;;;;;;;9.56;72.99;102322.25;5055892;28;20037;-44
2022/03/15 11:07:58;;;;;;;14.27;5.45;;;;;;;9.61;73.34;102319.69;5054848;28;20047;-47
2022/03/15 11:10:25;;;;;;;15.73;6.03;;;;;;;9.62;73.54;102320.53;5054207;28;20041;-48
2022/03/15 11:12:58;;;;;;;14.00;6.10;;;;;;;9.58;74.05;102322.88;5054121;28;20045;-46
2022/03/15 11:15:30;;;;;;;12.10;5.65;;;;;;;9.53;73.84;102311.84;5046308;28;20037;-43
2022/03/15 11:18:03;;;;;;;16.00;6.60;;;;;;;9.51;74.35;102306.59;4349641;28;10000704;-46
2022/03/15 11:20:37;;;;;;;16.70;6.00;;;;;;;9.52;74.67;102310.16;5053097;28;20045;-47
2022/03/15 11:23:13;;;;;;;17.05;6.18;;;;;;;9.54;74.38;102300.72;5070590;28;20045;-46
2022/03/15 11:25:45;;;;;;;13.48;5.65;;;;;;;9.57;74.57;102299.44;5068443;28;20040;-48
2022/03/15 11:28:17;;;;;;;13.50;5.93;;;;;;;9.59;74.87;102308.19;5069744;28;20802;-47
2022/03/15 11:30:44;;;;;;;19.83;6.10;;;;;;;9.57;74.92;102292.13;5070707;28;20086;-47
2022/03/15 11:33:13;;;;;;;11.65;5.70;;;;;;;9.57;74.60;102289.41;5070848;28;20154;-48